sensor_id;sensor_type;location;lat;lon;timestamp;temperature;humidity
16417;DHT22;8317;52.186;5.688;2023-02-14T00:02:13;3.20;99.90
16417;DHT22;8317;52.186;5.688;2023-02-14T00:04:40;3.20;99.90
16417;DHT22;8317;52.186;5.688;2023-02-14T00:07:09;3.20;99.90
16417;DHT22;8317;52.186;5.688;2023-02-14T00:09:36;3.10;99.90
16417;DHT22;8317;52.186;5.688;2023-02-14T00:12:04;3.10;99.90
16417;DHT22;8317;52.186;5.688;2023-02-14T00:14:32;3.10;99.90
16417;DHT22;8317;52.186;5.688;2023-02-14T00:17:17;3.00;99.90
16417;DHT22;8317;52.186;5.688;2023-02-14T00:19:44;3.00;99.90
16417;DHT22;8317;52.186;5.688;2023-02-14T00:22:11;2.90;99.90
16417;DHT22;8317;52.186;5.688;2023-02-14T00:24:38;2.80;99.90
16417;DHT22;8317;52.186;5.688;2023-02-14T00:27:05;2.90;99.90
16417;DHT22;8317;52.186;5.688;2023-02-14T00:29:31;2.90;99.90
16417;DHT22;8317;52.186;5.688;2023-02-14T00:31:59;2.90;99.90
16417;DHT22;8317;52.186;5.688;2023-02-14T00:34:27;2.90;99.90
16417;DHT22;8317;52.186;5.688;2023-02-14T00:36:54;2.90;99.90
16417;DHT22;8317;52.186;5.688;2023-02-14T00:39:21;2.90;99.90
16417;DHT22;8317;52.186;5.688;2023-02-14T00:41:48;2.90;99.90
16417;DHT22;8317;52.186;5.688;2023-02-14T00:44:15;2.90;99.90
16417;DHT22;8317;52.186;5.688;2023-02-14T00:46:42;2.80;99.90
16417;DHT22;8317;52.186;5.688;2023-02-14T00:49:09;2.60;99.90
16417;DHT22;8317;52.186;5.688;2023-02-14T00:51:38;2.30;99.90
16417;DHT22;8317;52.186;5.688;2023-02-14T00:54:05;2.20;99.90
16417;DHT22;8317;52.186;5.688;2023-02-14T00:56:32;2.20;99.90
16417;DHT22;8317;52.186;5.688;2023-02-14T00:58:59;2.20;99.90
16417;DHT22;8317;52.186;5.688;2023-02-14T01:01:26;2.20;99.90
16417;DHT22;8317;52.186;5.688;2023-02-14T01:03:53;2.30;99.90
16417;DHT22;8317;52.186;5.688;2023-02-14T01:06:20;2.10;99.90
16417;DHT22;8317;52.186;5.688;2023-02-14T01:08:48;2.00;99.90
16417;DHT22;8317;52.186;5.688;2023-02-14T01:11:17;1.80;99.90
16417;DHT22;8317;52.186;5.688;2023-02-14T01:13:45;1.50;99.90
16417;DHT22;8317;52.186;5.688;2023-02-14T01:16:15;1.50;99.90
16417;DHT22;8317;52.186;5.688;2023-02-14T01:18:42;1.50;99.90
16417;DHT22;8317;52.186;5.688;2023-02-14T01:21:15;1.50;99.90
16417;DHT22;8317;52.186;5.688;2023-02-14T01:23:43;1.40;99.90
16417;DHT22;8317;52.186;5.688;2023-02-14T01:26:13;1.60;99.90
16417;DHT22;8317;52.186;5.688;2023-02-14T01:28:41;1.50;99.90
16417;DHT22;8317;52.186;5.688;2023-02-14T01:31:09;1.50;99.90
16417;DHT22;8317;52.186;5.688;2023-02-14T01:33:37;1.70;99.90
16417;DHT22;8317;52.186;5.688;2023-02-14T01:36:05;1.70;99.90
16417;DHT22;8317;52.186;5.688;2023-02-14T01:38:32;1.80;99.90
16417;DHT22;8317;52.186;5.688;2023-02-14T01:40:59;1.80;99.90
16417;DHT22;8317;52.186;5.688;2023-02-14T01:43:27;1.90;99.90
16417;DHT22;8317;52.186;5.688;2023-02-14T01:45:54;1.90;99.90
16417;DHT22;8317;52.186;5.688;2023-02-14T01:48:22;1.90;99.90
16417;DHT22;8317;52.186;5.688;2023-02-14T01:50:52;1.90;99.90
16417;DHT22;8317;52.186;5.688;2023-02-14T01:53:22;1.90;99.90
16417;DHT22;8317;52.186;5.688;2023-02-14T01:55:55;1.90;99.90
16417;DHT22;8317;52.186;5.688;2023-02-14T01:58:24;1.90;99.90
16417;DHT22;8317;52.186;5.688;2023-02-14T02:00:54;2.00;99.90
16417;DHT22;8317;52.186;5.688;2023-02-14T02:03:27;1.90;99.90
16417;DHT22;8317;52.186;5.688;2023-02-14T02:05:58;1.90;99.90
16417;DHT22;8317;52.186;5.688;2023-02-14T02:08:28;2.00;99.90
16417;DHT22;8317;52.186;5.688;2023-02-14T02:10:56;1.90;99.90
16417;DHT22;8317;52.186;5.688;2023-02-14T02:13:23;1.70;99.90
16417;DHT22;8317;52.186;5.688;2023-02-14T02:16:03;1.40;99.90
16417;DHT22;8317;52.186;5.688;2023-02-14T02:18:45;1.50;99.90
16417;DHT22;8317;52.186;5.688;2023-02-14T02:24:21;1.60;99.90
16417;DHT22;8317;52.186;5.688;2023-02-14T02:27:24;1.60;99.90
16417;DHT22;8317;52.186;5.688;2023-02-14T02:33:12;1.70;99.90
16417;DHT22;8317;52.186;5.688;2023-02-14T02:35:56;1.60;99.90
16417;DHT22;8317;52.186;5.688;2023-02-14T02:38:39;1.70;99.90
16417;DHT22;8317;52.186;5.688;2023-02-14T02:41:16;1.70;99.90
16417;DHT22;8317;52.186;5.688;2023-02-14T02:43:52;1.60;99.90
16417;DHT22;8317;52.186;5.688;2023-02-14T02:46:24;1.60;99.90
16417;DHT22;8317;52.186;5.688;2023-02-14T02:49:15;1.60;99.90
16417;DHT22;8317;52.186;5.688;2023-02-14T02:52:03;1.60;99.90
16417;DHT22;8317;52.186;5.688;2023-02-14T02:54:55;1.60;99.90
16417;DHT22;8317;52.186;5.688;2023-02-14T02:57:27;1.60;99.90
16417;DHT22;8317;52.186;5.688;2023-02-14T02:59:56;1.60;99.90
16417;DHT22;8317;52.186;5.688;2023-02-14T03:02:28;1.60;99.90
16417;DHT22;8317;52.186;5.688;2023-02-14T03:04:58;1.60;99.90
16417;DHT22;8317;52.186;5.688;2023-02-14T03:07:33;1.60;99.90
16417;DHT22;8317;52.186;5.688;2023-02-14T03:10:05;1.50;99.90
16417;DHT22;8317;52.186;5.688;2023-02-14T03:16:04;1.60;99.90
16417;DHT22;8317;52.186;5.688;2023-02-14T03:18:56;1.50;99.90
16417;DHT22;8317;52.186;5.688;2023-02-14T03:21:31;1.50;99.90
16417;DHT22;8317;52.186;5.688;2023-02-14T03:24:07;1.50;99.90
16417;DHT22;8317;52.186;5.688;2023-02-14T03:26:49;1.50;99.90
16417;DHT22;8317;52.186;5.688;2023-02-14T03:29:24;1.60;99.90
16417;DHT22;8317;52.186;5.688;2023-02-14T03:31:57;1.50;99.90
16417;DHT22;8317;52.186;5.688;2023-02-14T03:34:30;1.50;99.90
16417;DHT22;8317;52.186;5.688;2023-02-14T03:37:00;1.40;99.90
16417;DHT22;8317;52.186;5.688;2023-02-14T03:39:36;1.20;99.90
16417;DHT22;8317;52.186;5.688;2023-02-14T03:42:07;1.30;99.90
16417;DHT22;8317;52.186;5.688;2023-02-14T03:44:38;1.30;99.90
16417;DHT22;8317;52.186;5.688;2023-02-14T03:47:09;1.30;99.90
16417;DHT22;8317;52.186;5.688;2023-02-14T03:49:44;1.40;99.90
16417;DHT22;8317;52.186;5.688;2023-02-14T03:52:13;1.40;99.90
16417;DHT22;8317;52.186;5.688;2023-02-14T03:54:44;1.40;99.90
16417;DHT22;8317;52.186;5.688;2023-02-14T03:57:17;1.40;99.90
16417;DHT22;8317;52.186;5.688;2023-02-14T03:59:47;1.40;99.90
16417;DHT22;8317;52.186;5.688;2023-02-14T04:02:16;1.40;99.90
16417;DHT22;8317;52.186;5.688;2023-02-14T04:04:47;1.20;99.90
16417;DHT22;8317;52.186;5.688;2023-02-14T04:07:17;1.10;99.90
16417;DHT22;8317;52.186;5.688;2023-02-14T04:09:45;1.00;99.90
16417;DHT22;8317;52.186;5.688;2023-02-14T04:12:13;1.10;99.90
16417;DHT22;8317;52.186;5.688;2023-02-14T04:14:40;1.10;99.90
16417;DHT22;8317;52.186;5.688;2023-02-14T04:17:07;1.00;99.90
16417;DHT22;8317;52.186;5.688;2023-02-14T04:19:52;1.00;99.90
16417;DHT22;8317;52.186;5.688;2023-02-14T04:22:19;1.10;99.90
16417;DHT22;8317;52.186;5.688;2023-02-14T04:24:47;1.00;99.90
16417;DHT22;8317;52.186;5.688;2023-02-14T04:27:14;1.00;99.90
16417;DHT22;8317;52.186;5.688;2023-02-14T04:29:42;1.00;99.90
16417;DHT22;8317;52.186;5.688;2023-02-14T04:32:11;1.10;99.90
16417;DHT22;8317;52.186;5.688;2023-02-14T04:34:38;1.00;99.90
16417;DHT22;8317;52.186;5.688;2023-02-14T04:37:06;1.00;99.90
16417;DHT22;8317;52.186;5.688;2023-02-14T04:39:33;1.10;99.90
16417;DHT22;8317;52.186;5.688;2023-02-14T04:42:01;1.10;99.90
16417;DHT22;8317;52.186;5.688;2023-02-14T04:44:28;1.10;99.90
16417;DHT22;8317;52.186;5.688;2023-02-14T04:46:55;1.10;99.90
16417;DHT22;8317;52.186;5.688;2023-02-14T04:49:22;1.10;99.90
16417;DHT22;8317;52.186;5.688;2023-02-14T04:51:49;1.10;99.90
16417;DHT22;8317;52.186;5.688;2023-02-14T04:54:16;1.10;99.90
16417;DHT22;8317;52.186;5.688;2023-02-14T04:56:43;1.10;99.90
16417;DHT22;8317;52.186;5.688;2023-02-14T04:59:11;1.10;99.90
16417;DHT22;8317;52.186;5.688;2023-02-14T05:01:39;1.10;99.90
16417;DHT22;8317;52.186;5.688;2023-02-14T05:04:06;1.10;99.90
16417;DHT22;8317;52.186;5.688;2023-02-14T05:06:33;1.10;99.90
16417;DHT22;8317;52.186;5.688;2023-02-14T05:09:01;1.10;99.90
16417;DHT22;8317;52.186;5.688;2023-02-14T05:11:28;1.10;99.90
16417;DHT22;8317;52.186;5.688;2023-02-14T05:13:55;1.10;99.90
16417;DHT22;8317;52.186;5.688;2023-02-14T05:16:23;1.10;99.90
16417;DHT22;8317;52.186;5.688;2023-02-14T05:18:50;1.00;99.90
16417;DHT22;8317;52.186;5.688;2023-02-14T05:21:17;1.00;99.90
16417;DHT22;8317;52.186;5.688;2023-02-14T05:23:44;1.00;99.90
16417;DHT22;8317;52.186;5.688;2023-02-14T05:26:11;1.00;99.90
16417;DHT22;8317;52.186;5.688;2023-02-14T05:28:38;1.10;99.90
16417;DHT22;8317;52.186;5.688;2023-02-14T05:31:06;1.00;99.90
16417;DHT22;8317;52.186;5.688;2023-02-14T05:33:34;1.00;99.90
16417;DHT22;8317;52.186;5.688;2023-02-14T05:36:02;1.00;99.90
16417;DHT22;8317;52.186;5.688;2023-02-14T05:38:29;1.00;99.90
16417;DHT22;8317;52.186;5.688;2023-02-14T05:40:58;1.00;99.90
16417;DHT22;8317;52.186;5.688;2023-02-14T05:43:24;0.90;99.90
16417;DHT22;8317;52.186;5.688;2023-02-14T05:45:51;0.90;99.90
16417;DHT22;8317;52.186;5.688;2023-02-14T05:48:19;0.90;99.90
16417;DHT22;8317;52.186;5.688;2023-02-14T05:50:48;0.90;99.90
16417;DHT22;8317;52.186;5.688;2023-02-14T05:53:15;0.90;99.90
16417;DHT22;8317;52.186;5.688;2023-02-14T05:55:42;0.90;99.90
16417;DHT22;8317;52.186;5.688;2023-02-14T05:58:09;0.90;99.90
16417;DHT22;8317;52.186;5.688;2023-02-14T06:00:36;1.00;99.90
16417;DHT22;8317;52.186;5.688;2023-02-14T06:03:03;0.90;99.90
16417;DHT22;8317;52.186;5.688;2023-02-14T06:05:30;0.90;99.90
16417;DHT22;8317;52.186;5.688;2023-02-14T06:07:58;0.90;99.90
16417;DHT22;8317;52.186;5.688;2023-02-14T06:10:26;0.90;99.90
16417;DHT22;8317;52.186;5.688;2023-02-14T06:12:53;0.90;99.90
16417;DHT22;8317;52.186;5.688;2023-02-14T06:15:20;0.90;99.90
16417;DHT22;8317;52.186;5.688;2023-02-14T06:17:50;0.90;99.90
16417;DHT22;8317;52.186;5.688;2023-02-14T06:20:18;0.90;99.90
16417;DHT22;8317;52.186;5.688;2023-02-14T06:22:45;0.90;99.90
16417;DHT22;8317;52.186;5.688;2023-02-14T06:25:14;0.80;99.90
16417;DHT22;8317;52.186;5.688;2023-02-14T06:27:41;0.80;99.90
16417;DHT22;8317;52.186;5.688;2023-02-14T06:30:09;0.80;99.90
16417;DHT22;8317;52.186;5.688;2023-02-14T06:32:38;0.80;99.90
16417;DHT22;8317;52.186;5.688;2023-02-14T06:35:06;0.80;99.90
16417;DHT22;8317;52.186;5.688;2023-02-14T06:37:34;0.70;99.90
16417;DHT22;8317;52.186;5.688;2023-02-14T06:40:03;0.70;99.90
16417;DHT22;8317;52.186;5.688;2023-02-14T06:42:32;0.80;99.90
16417;DHT22;8317;52.186;5.688;2023-02-14T06:44:58;0.80;99.90
16417;DHT22;8317;52.186;5.688;2023-02-14T06:47:27;0.80;99.90
16417;DHT22;8317;52.186;5.688;2023-02-14T06:49:54;0.70;99.90
16417;DHT22;8317;52.186;5.688;2023-02-14T06:52:20;0.80;99.90
16417;DHT22;8317;52.186;5.688;2023-02-14T06:54:47;0.80;99.90
16417;DHT22;8317;52.186;5.688;2023-02-14T06:57:14;0.80;99.90
16417;DHT22;8317;52.186;5.688;2023-02-14T06:59:43;0.80;99.90
16417;DHT22;8317;52.186;5.688;2023-02-14T07:02:10;0.80;99.90
16417;DHT22;8317;52.186;5.688;2023-02-14T07:04:37;0.80;99.90
16417;DHT22;8317;52.186;5.688;2023-02-14T07:07:04;0.80;99.90
16417;DHT22;8317;52.186;5.688;2023-02-14T07:09:31;0.90;99.90
16417;DHT22;8317;52.186;5.688;2023-02-14T07:11:58;0.90;99.90
16417;DHT22;8317;52.186;5.688;2023-02-14T07:14:25;0.90;99.90
16417;DHT22;8317;52.186;5.688;2023-02-14T07:16:53;0.90;99.90
16417;DHT22;8317;52.186;5.688;2023-02-14T07:19:20;0.90;99.90
16417;DHT22;8317;52.186;5.688;2023-02-14T07:21:47;0.90;99.90
16417;DHT22;8317;52.186;5.688;2023-02-14T07:24:14;1.20;99.90
16417;DHT22;8317;52.186;5.688;2023-02-14T07:26:41;1.30;99.90
16417;DHT22;8317;52.186;5.688;2023-02-14T07:29:08;1.30;99.90
16417;DHT22;8317;52.186;5.688;2023-02-14T07:31:36;1.30;99.90
16417;DHT22;8317;52.186;5.688;2023-02-14T07:34:05;1.30;99.90
16417;DHT22;8317;52.186;5.688;2023-02-14T07:36:32;1.30;99.90
16417;DHT22;8317;52.186;5.688;2023-02-14T07:38:59;1.30;99.90
16417;DHT22;8317;52.186;5.688;2023-02-14T07:41:26;1.30;99.90
16417;DHT22;8317;52.186;5.688;2023-02-14T07:43:53;1.40;99.90
16417;DHT22;8317;52.186;5.688;2023-02-14T07:46:20;1.40;99.90
16417;DHT22;8317;52.186;5.688;2023-02-14T07:48:47;1.40;99.90
16417;DHT22;8317;52.186;5.688;2023-02-14T07:51:17;1.40;99.90
16417;DHT22;8317;52.186;5.688;2023-02-14T07:53:44;1.50;99.90
16417;DHT22;8317;52.186;5.688;2023-02-14T07:56:11;1.40;99.90
16417;DHT22;8317;52.186;5.688;2023-02-14T07:58:38;1.50;99.90
16417;DHT22;8317;52.186;5.688;2023-02-14T08:01:05;1.60;99.90
16417;DHT22;8317;52.186;5.688;2023-02-14T08:03:32;1.80;99.90
16417;DHT22;8317;52.186;5.688;2023-02-14T08:05:59;2.00;99.90
16417;DHT22;8317;52.186;5.688;2023-02-14T08:08:29;2.20;99.90
16417;DHT22;8317;52.186;5.688;2023-02-14T08:10:56;2.50;99.90
16417;DHT22;8317;52.186;5.688;2023-02-14T08:13:23;2.60;99.90
16417;DHT22;8317;52.186;5.688;2023-02-14T08:15:49;2.70;99.90
16417;DHT22;8317;52.186;5.688;2023-02-14T08:18:34;2.90;99.90
16417;DHT22;8317;52.186;5.688;2023-02-14T08:21:01;3.10;99.90
16417;DHT22;8317;52.186;5.688;2023-02-14T08:23:30;3.40;99.90
16417;DHT22;8317;52.186;5.688;2023-02-14T08:25:57;3.70;99.90
16417;DHT22;8317;52.186;5.688;2023-02-14T08:28:25;4.10;99.90
16417;DHT22;8317;52.186;5.688;2023-02-14T08:30:52;4.40;99.90
16417;DHT22;8317;52.186;5.688;2023-02-14T08:33:20;4.80;99.90
16417;DHT22;8317;52.186;5.688;2023-02-14T08:35:47;5.10;99.90
16417;DHT22;8317;52.186;5.688;2023-02-14T08:38:13;5.40;99.90
16417;DHT22;8317;52.186;5.688;2023-02-14T08:40:42;5.70;99.90
16417;DHT22;8317;52.186;5.688;2023-02-14T08:43:09;5.90;99.90
16417;DHT22;8317;52.186;5.688;2023-02-14T08:45:37;6.10;99.90
16417;DHT22;8317;52.186;5.688;2023-02-14T08:48:06;6.20;99.90
16417;DHT22;8317;52.186;5.688;2023-02-14T08:50:34;6.50;99.90
16417;DHT22;8317;52.186;5.688;2023-02-14T08:53:05;6.90;99.90
16417;DHT22;8317;52.186;5.688;2023-02-14T08:55:33;7.20;99.90
16417;DHT22;8317;52.186;5.688;2023-02-14T08:58:03;7.10;99.90
16417;DHT22;8317;52.186;5.688;2023-02-14T09:00:30;7.10;99.90
16417;DHT22;8317;52.186;5.688;2023-02-14T09:02:57;7.20;99.90
16417;DHT22;8317;52.186;5.688;2023-02-14T09:05:25;7.20;99.90
16417;DHT22;8317;52.186;5.688;2023-02-14T09:07:52;7.50;99.90
16417;DHT22;8317;52.186;5.688;2023-02-14T09:10:21;7.70;99.90
16417;DHT22;8317;52.186;5.688;2023-02-14T09:12:48;7.70;99.90
16417;DHT22;8317;52.186;5.688;2023-02-14T09:15:17;7.90;99.90
16417;DHT22;8317;52.186;5.688;2023-02-14T09:17:44;7.80;99.90
16417;DHT22;8317;52.186;5.688;2023-02-14T09:20:13;7.90;99.90
16417;DHT22;8317;52.186;5.688;2023-02-14T09:22:40;8.00;99.90
16417;DHT22;8317;52.186;5.688;2023-02-14T09:25:08;8.00;99.90
16417;DHT22;8317;52.186;5.688;2023-02-14T09:27:35;8.20;99.90
16417;DHT22;8317;52.186;5.688;2023-02-14T09:30:02;8.60;99.90
16417;DHT22;8317;52.186;5.688;2023-02-14T09:32:31;9.00;99.90
16417;DHT22;8317;52.186;5.688;2023-02-14T09:34:58;9.00;99.90
16417;DHT22;8317;52.186;5.688;2023-02-14T09:37:25;9.00;99.90
16417;DHT22;8317;52.186;5.688;2023-02-14T09:39:52;8.70;99.90
16417;DHT22;8317;52.186;5.688;2023-02-14T09:42:33;9.10;99.90
16417;DHT22;8317;52.186;5.688;2023-02-14T09:45:05;9.20;99.90
16417;DHT22;8317;52.186;5.688;2023-02-14T09:47:41;9.50;99.90
16417;DHT22;8317;52.186;5.688;2023-02-14T09:50:16;9.60;99.90
16417;DHT22;8317;52.186;5.688;2023-02-14T09:52:45;10.20;99.90
16417;DHT22;8317;52.186;5.688;2023-02-14T09:55:15;10.40;99.90
16417;DHT22;8317;52.186;5.688;2023-02-14T09:57:52;10.20;99.90
16417;DHT22;8317;52.186;5.688;2023-02-14T10:00:28;10.40;99.90
16417;DHT22;8317;52.186;5.688;2023-02-14T10:03:07;10.90;99.90
16417;DHT22;8317;52.186;5.688;2023-02-14T10:05:38;10.80;99.90
16417;DHT22;8317;52.186;5.688;2023-02-14T10:08:15;11.00;99.90
16417;DHT22;8317;52.186;5.688;2023-02-14T10:10:47;11.20;99.90
16417;DHT22;8317;52.186;5.688;2023-02-14T10:13:21;11.30;99.90
16417;DHT22;8317;52.186;5.688;2023-02-14T10:15:57;11.20;99.90
16417;DHT22;8317;52.186;5.688;2023-02-14T10:18:28;11.00;99.90
16417;DHT22;8317;52.186;5.688;2023-02-14T10:21:00;11.50;99.90
16417;DHT22;8317;52.186;5.688;2023-02-14T10:23:31;11.50;99.90
16417;DHT22;8317;52.186;5.688;2023-02-14T10:26:00;11.90;99.90
16417;DHT22;8317;52.186;5.688;2023-02-14T10:28:31;11.80;99.90
16417;DHT22;8317;52.186;5.688;2023-02-14T10:31:10;12.10;99.90
16417;DHT22;8317;52.186;5.688;2023-02-14T10:33:50;12.60;99.90
16417;DHT22;8317;52.186;5.688;2023-02-14T10:39:27;13.20;99.90
16417;DHT22;8317;52.186;5.688;2023-02-14T10:41:58;13.10;99.90
16417;DHT22;8317;52.186;5.688;2023-02-14T10:44:39;13.70;99.90
16417;DHT22;8317;52.186;5.688;2023-02-14T10:47:23;14.10;99.90
16417;DHT22;8317;52.186;5.688;2023-02-14T10:49:58;14.00;99.90
16417;DHT22;8317;52.186;5.688;2023-02-14T10:52:33;14.30;99.90
16417;DHT22;8317;52.186;5.688;2023-02-14T10:55:10;14.20;99.90
16417;DHT22;8317;52.186;5.688;2023-02-14T10:57:40;14.20;99.90
16417;DHT22;8317;52.186;5.688;2023-02-14T11:00:17;14.80;99.90
16417;DHT22;8317;52.186;5.688;2023-02-14T11:02:46;14.50;99.90
16417;DHT22;8317;52.186;5.688;2023-02-14T11:05:24;14.60;99.90
16417;DHT22;8317;52.186;5.688;2023-02-14T11:07:51;15.10;99.90
16417;DHT22;8317;52.186;5.688;2023-02-14T11:10:21;15.20;99.90
16417;DHT22;8317;52.186;5.688;2023-02-14T11:12:49;14.70;99.90
16417;DHT22;8317;52.186;5.688;2023-02-14T11:15:23;15.10;99.90
16417;DHT22;8317;52.186;5.688;2023-02-14T11:18:07;15.60;99.90
16417;DHT22;8317;52.186;5.688;2023-02-14T11:20:36;16.10;99.90
16417;DHT22;8317;52.186;5.688;2023-02-14T11:23:17;16.10;99.90
16417;DHT22;8317;52.186;5.688;2023-02-14T11:25:49;15.90;99.90
16417;DHT22;8317;52.186;5.688;2023-02-14T11:28:18;15.80;99.90
16417;DHT22;8317;52.186;5.688;2023-02-14T11:30:47;15.70;99.90
16417;DHT22;8317;52.186;5.688;2023-02-14T11:33:32;16.00;99.90
16417;DHT22;8317;52.186;5.688;2023-02-14T11:36:03;16.30;99.90
16417;DHT22;8317;52.186;5.688;2023-02-14T11:38:32;16.80;99.90
16417;DHT22;8317;52.186;5.688;2023-02-14T11:41:02;17.50;99.90
16417;DHT22;8317;52.186;5.688;2023-02-14T11:43:32;17.10;99.90
16417;DHT22;8317;52.186;5.688;2023-02-14T11:46:24;16.40;99.90
16417;DHT22;8317;52.186;5.688;2023-02-14T11:48:57;16.20;99.90
16417;DHT22;8317;52.186;5.688;2023-02-14T11:51:28;16.30;99.90
16417;DHT22;8317;52.186;5.688;2023-02-14T11:53:57;16.80;99.90
16417;DHT22;8317;52.186;5.688;2023-02-14T11:56:45;17.50;99.90
16417;DHT22;8317;52.186;5.688;2023-02-14T11:59:24;17.30;99.90
16417;DHT22;8317;52.186;5.688;2023-02-14T12:01:52;16.90;99.90
16417;DHT22;8317;52.186;5.688;2023-02-14T12:04:21;17.30;99.90
16417;DHT22;8317;52.186;5.688;2023-02-14T12:06:53;17.50;99.90
16417;DHT22;8317;52.186;5.688;2023-02-14T12:09:27;16.50;99.90
16417;DHT22;8317;52.186;5.688;2023-02-14T12:11:57;17.10;99.90
16417;DHT22;8317;52.186;5.688;2023-02-14T12:14:26;16.90;99.90
16417;DHT22;8317;52.186;5.688;2023-02-14T12:16:57;16.60;99.90
16417;DHT22;8317;52.186;5.688;2023-02-14T12:19:33;16.70;99.90
16417;DHT22;8317;52.186;5.688;2023-02-14T12:22:05;16.90;99.90
16417;DHT22;8317;52.186;5.688;2023-02-14T12:24:35;16.50;99.90
16417;DHT22;8317;52.186;5.688;2023-02-14T12:27:17;16.70;99.90
16417;DHT22;8317;52.186;5.688;2023-02-14T12:29:49;16.30;99.90
16417;DHT22;8317;52.186;5.688;2023-02-14T12:32:21;15.60;99.90
16417;DHT22;8317;52.186;5.688;2023-02-14T12:34:50;15.60;99.90
16417;DHT22;8317;52.186;5.688;2023-02-14T12:37:27;15.60;99.90
16417;DHT22;8317;52.186;5.688;2023-02-14T12:40:15;16.30;99.90
16417;DHT22;8317;52.186;5.688;2023-02-14T12:43:02;16.50;99.90
16417;DHT22;8317;52.186;5.688;2023-02-14T12:45:58;16.30;99.90
16417;DHT22;8317;52.186;5.688;2023-02-14T12:48:37;16.10;99.90
16417;DHT22;8317;52.186;5.688;2023-02-14T12:51:12;16.30;99.90
16417;DHT22;8317;52.186;5.688;2023-02-14T12:53:53;16.30;99.90
16417;DHT22;8317;52.186;5.688;2023-02-14T12:56:29;15.70;99.90
16417;DHT22;8317;52.186;5.688;2023-02-14T12:59:07;15.70;99.90
16417;DHT22;8317;52.186;5.688;2023-02-14T13:02:01;16.10;99.90
16417;DHT22;8317;52.186;5.688;2023-02-14T13:04:43;16.30;99.90
16417;DHT22;8317;52.186;5.688;2023-02-14T13:07:22;16.50;99.90
16417;DHT22;8317;52.186;5.688;2023-02-14T13:09:55;17.60;99.90
16417;DHT22;8317;52.186;5.688;2023-02-14T13:12:31;17.50;99.90
16417;DHT22;8317;52.186;5.688;2023-02-14T13:15:11;17.20;99.90
16417;DHT22;8317;52.186;5.688;2023-02-14T13:17:43;16.50;99.90
16417;DHT22;8317;52.186;5.688;2023-02-14T13:23:07;17.70;99.90
16417;DHT22;8317;52.186;5.688;2023-02-14T13:25:39;17.20;99.90
16417;DHT22;8317;52.186;5.688;2023-02-14T13:28:12;16.90;99.90
16417;DHT22;8317;52.186;5.688;2023-02-14T13:30:39;17.10;99.90
16417;DHT22;8317;52.186;5.688;2023-02-14T13:33:17;17.20;99.90
16417;DHT22;8317;52.186;5.688;2023-02-14T13:35:47;17.80;99.90
16417;DHT22;8317;52.186;5.688;2023-02-14T13:38:16;18.00;99.90
16417;DHT22;8317;52.186;5.688;2023-02-14T13:40:46;18.50;99.90
16417;DHT22;8317;52.186;5.688;2023-02-14T13:46:47;18.60;99.90
16417;DHT22;8317;52.186;5.688;2023-02-14T13:49:32;18.60;99.90
16417;DHT22;8317;52.186;5.688;2023-02-14T13:52:01;17.70;99.90
16417;DHT22;8317;52.186;5.688;2023-02-14T13:54:32;18.20;99.90
16417;DHT22;8317;52.186;5.688;2023-02-14T13:57:01;18.50;99.90
16417;DHT22;8317;52.186;5.688;2023-02-14T13:59:30;17.90;99.90
16417;DHT22;8317;52.186;5.688;2023-02-14T14:04:55;17.30;99.90
16417;DHT22;8317;52.186;5.688;2023-02-14T14:07:24;17.50;99.90
16417;DHT22;8317;52.186;5.688;2023-02-14T14:09:59;17.60;99.90
16417;DHT22;8317;52.186;5.688;2023-02-14T14:12:38;17.30;99.90
16417;DHT22;8317;52.186;5.688;2023-02-14T14:15:13;17.30;99.90
16417;DHT22;8317;52.186;5.688;2023-02-14T14:17:42;16.70;99.90
16417;DHT22;8317;52.186;5.688;2023-02-14T14:20:36;17.10;99.90
16417;DHT22;8317;52.186;5.688;2023-02-14T14:23:34;17.60;99.90
16417;DHT22;8317;52.186;5.688;2023-02-14T14:26:32;18.60;99.90
16417;DHT22;8317;52.186;5.688;2023-02-14T14:29:00;17.90;99.90
16417;DHT22;8317;52.186;5.688;2023-02-14T14:31:27;17.80;99.90
16417;DHT22;8317;52.186;5.688;2023-02-14T14:33:59;17.20;99.90
16417;DHT22;8317;52.186;5.688;2023-02-14T14:36:26;18.70;99.90
16417;DHT22;8317;52.186;5.688;2023-02-14T14:38:53;19.20;99.90
16417;DHT22;8317;52.186;5.688;2023-02-14T14:41:26;19.20;99.90
16417;DHT22;8317;52.186;5.688;2023-02-14T14:43:56;19.70;99.90
16417;DHT22;8317;52.186;5.688;2023-02-14T14:46:23;20.20;99.90
16417;DHT22;8317;52.186;5.688;2023-02-14T14:48:52;20.20;99.90
16417;DHT22;8317;52.186;5.688;2023-02-14T14:51:25;20.00;99.90
16417;DHT22;8317;52.186;5.688;2023-02-14T14:53:55;19.50;99.90
16417;DHT22;8317;52.186;5.688;2023-02-14T14:56:24;18.70;99.90
16417;DHT22;8317;52.186;5.688;2023-02-14T14:58:54;18.40;99.90
16417;DHT22;8317;52.186;5.688;2023-02-14T15:01:29;18.20;99.90
16417;DHT22;8317;52.186;5.688;2023-02-14T15:04:07;17.50;99.90
16417;DHT22;8317;52.186;5.688;2023-02-14T15:06:34;17.30;99.90
16417;DHT22;8317;52.186;5.688;2023-02-14T15:09:11;17.50;99.90
16417;DHT22;8317;52.186;5.688;2023-02-14T15:11:39;17.90;99.90
16417;DHT22;8317;52.186;5.688;2023-02-14T15:14:27;17.80;99.90
16417;DHT22;8317;52.186;5.688;2023-02-14T15:16:58;17.70;99.90
16417;DHT22;8317;52.186;5.688;2023-02-14T15:19:27;18.10;99.90
16417;DHT22;8317;52.186;5.688;2023-02-14T15:21:59;18.70;99.90
16417;DHT22;8317;52.186;5.688;2023-02-14T15:24:27;18.70;99.90
16417;DHT22;8317;52.186;5.688;2023-02-14T15:26:55;18.80;99.90
16417;DHT22;8317;52.186;5.688;2023-02-14T15:29:26;17.80;99.90
16417;DHT22;8317;52.186;5.688;2023-02-14T15:31:55;17.30;99.90
16417;DHT22;8317;52.186;5.688;2023-02-14T15:34:25;17.60;99.90
16417;DHT22;8317;52.186;5.688;2023-02-14T15:36:54;17.80;99.90
16417;DHT22;8317;52.186;5.688;2023-02-14T15:39:33;17.50;99.90
16417;DHT22;8317;52.186;5.688;2023-02-14T15:42:01;17.40;99.90
16417;DHT22;8317;52.186;5.688;2023-02-14T15:44:30;16.60;99.90
16417;DHT22;8317;52.186;5.688;2023-02-14T15:47:00;16.50;99.90
16417;DHT22;8317;52.186;5.688;2023-02-14T15:49:32;16.30;99.90
16417;DHT22;8317;52.186;5.688;2023-02-14T15:52:02;16.20;99.90
16417;DHT22;8317;52.186;5.688;2023-02-14T15:54:34;15.80;99.90
16417;DHT22;8317;52.186;5.688;2023-02-14T15:57:03;15.60;99.90
16417;DHT22;8317;52.186;5.688;2023-02-14T15:59:33;15.60;99.90
16417;DHT22;8317;52.186;5.688;2023-02-14T16:02:03;15.40;99.90
16417;DHT22;8317;52.186;5.688;2023-02-14T16:04:41;15.40;99.90
16417;DHT22;8317;52.186;5.688;2023-02-14T16:07:23;15.70;99.90
16417;DHT22;8317;52.186;5.688;2023-02-14T16:12:58;16.40;99.90
16417;DHT22;8317;52.186;5.688;2023-02-14T16:15:27;16.40;99.90
16417;DHT22;8317;52.186;5.688;2023-02-14T16:17:54;15.90;99.90
16417;DHT22;8317;52.186;5.688;2023-02-14T16:20:27;15.50;99.90
16417;DHT22;8317;52.186;5.688;2023-02-14T16:23:13;14.90;99.90
16417;DHT22;8317;52.186;5.688;2023-02-14T16:25:40;14.20;99.90
16417;DHT22;8317;52.186;5.688;2023-02-14T16:28:08;13.80;99.90
16417;DHT22;8317;52.186;5.688;2023-02-14T16:30:36;13.30;99.90
16417;DHT22;8317;52.186;5.688;2023-02-14T16:33:04;13.10;99.90
16417;DHT22;8317;52.186;5.688;2023-02-14T16:35:32;12.70;99.90
16417;DHT22;8317;52.186;5.688;2023-02-14T16:37:59;12.50;99.90
16417;DHT22;8317;52.186;5.688;2023-02-14T16:40:26;12.20;99.90
16417;DHT22;8317;52.186;5.688;2023-02-14T16:42:53;12.00;99.90
16417;DHT22;8317;52.186;5.688;2023-02-14T16:45:21;11.90;99.90